Time;durP1;ratioP1;P1;durP2;ratioP2;P2;SDS_P1;SDS_P2;PMS_P1;PMS_P2;Temp;Humidity;BMP_temperature;BMP_pressure;BME280_temperature;BME280_humidity;BME280_pressure;Samples;Min_cycle;Max_cycle;Signal;HPM_P1;HPM_P2
2022/04/12 00:00:46;;;;;;;6.40;5.30;;;7.10;96.40;;;;;;5079604;28;20823;-78
2022/04/12 00:03:14;;;;;;;6.43;4.73;;;7.00;96.30;;;;;;5080405;28;20445;-78
2022/04/12 00:05:43;;;;;;;9.63;5.80;;;7.00;96.30;;;;;;5097528;28;20905;-78
2022/04/12 00:08:11;;;;;;;5.97;5.37;;;7.00;96.40;;;;;;5100186;28;20436;-78
2022/04/12 00:10:40;;;;;;;5.10;4.47;;;7.00;96.40;;;;;;5079562;28;20854;-78
2022/04/12 00:13:08;;;;;;;7.17;5.20;;;7.00;96.40;;;;;;5088657;28;20994;-78
2022/04/12 00:15:37;;;;;;;5.40;4.73;;;7.00;96.40;;;;;;5081664;28;20476;-78
2022/04/12 00:20:54;;;;;;;5.67;4.73;;;6.90;96.40;;;;;;5093257;28;20549;-80
2022/04/12 00:23:23;;;;;;;6.10;4.40;;;6.90;96.40;;;;;;5100382;28;20447;-78
2022/04/12 00:25:53;;;;;;;5.07;4.57;;;6.90;96.40;;;;;;5099455;28;20877;-78
2022/04/12 00:28:22;;;;;;;6.93;4.67;;;6.90;96.50;;;;;;5092798;28;20509;-77
2022/04/12 00:30:50;;;;;;;6.30;4.67;;;6.90;96.50;;;;;;5093109;28;20854;-77
2022/04/12 00:33:20;;;;;;;5.67;4.67;;;6.90;96.50;;;;;;5097147;28;20539;-78
2022/04/12 00:35:48;;;;;;;6.57;4.73;;;6.80;96.50;;;;;;5096245;28;20477;-77
2022/04/12 00:38:22;;;;;;;6.20;4.63;;;6.80;96.50;;;;;;5098533;28;20448;-78
2022/04/12 00:40:53;;;;;;;6.80;4.77;;;6.80;96.60;;;;;;5095891;28;20482;-78
2022/04/12 00:43:26;;;;;;;7.27;5.23;;;6.80;96.60;;;;;;5082100;28;20451;-78
2022/04/12 00:45:58;;;;;;;7.60;4.93;;;6.70;96.60;;;;;;5081191;28;20499;-79
2022/04/12 00:48:28;;;;;;;5.47;4.67;;;6.80;96.60;;;;;;5080517;28;20416;-78
2022/04/12 00:50:56;;;;;;;6.53;4.77;;;6.70;96.60;;;;;;5080491;28;20451;-78
2022/04/12 00:53:25;;;;;;;4.97;4.33;;;6.70;96.60;;;;;;5080479;28;20455;-78
2022/04/12 00:55:54;;;;;;;5.63;5.03;;;6.70;96.70;;;;;;5079720;28;20513;-79
2022/04/12 00:58:22;;;;;;;5.30;4.60;;;6.70;96.70;;;;;;5081335;28;20429;-78
2022/04/12 01:00:50;;;;;;;6.00;4.87;;;6.60;96.70;;;;;;5081018;28;20458;-78
2022/04/12 01:03:18;;;;;;;6.00;4.40;;;6.60;96.70;;;;;;5081783;28;20478;-79
2022/04/12 01:05:49;;;;;;;5.30;4.43;;;6.60;96.80;;;;;;5084587;28;20477;-78
2022/04/12 01:08:18;;;;;;;5.37;4.77;;;6.60;96.80;;;;;;5100278;28;20439;-78
2022/04/12 01:10:47;;;;;;;7.10;5.20;;;6.60;96.80;;;;;;5093504;28;20463;-79
2022/04/12 01:13:15;;;;;;;5.40;4.70;;;6.60;96.80;;;;;;5079160;28;20442;-78
2022/04/12 01:15:43;;;;;;;5.50;4.93;;;6.50;96.80;;;;;;5080780;28;20481;-78
2022/04/12 01:18:12;;;;;;;6.07;5.30;;;6.50;96.80;;;;;;5081302;28;20447;-78
2022/04/12 01:20:40;;;;;;;7.30;5.20;;;6.50;96.80;;;;;;5081241;28;20476;-79
2022/04/12 01:23:14;;;;;;;7.30;5.40;;;6.50;96.80;;;;;;5096019;28;20545;-78
2022/04/12 01:25:44;;;;;;;6.43;5.50;;;6.50;96.90;;;;;;5087269;28;20479;-78
2022/04/12 01:28:13;;;;;;;5.90;4.70;;;6.40;96.90;;;;;;5081200;28;20440;-78
2022/04/12 01:30:41;;;;;;;6.17;4.50;;;6.40;96.90;;;;;;5099204;28;20462;-78
2022/04/12 01:33:10;;;;;;;7.00;5.00;;;6.40;96.90;;;;;;5092904;28;20438;-78
2022/04/12 01:35:38;;;;;;;5.70;4.70;;;6.40;96.90;;;;;;5099380;28;20494;-78
2022/04/12 01:38:06;;;;;;;5.70;5.20;;;6.40;97.00;;;;;;5099083;28;20433;-78
2022/04/12 01:40:35;;;;;;;6.70;5.20;;;6.40;97.00;;;;;;5097838;28;21061;-79
2022/04/12 01:43:04;;;;;;;5.80;5.10;;;6.30;96.90;;;;;;5092753;28;20455;-78
2022/04/12 01:45:32;;;;;;;6.33;5.73;;;6.30;97.30;;;;;;5081633;28;20464;-78
2022/04/12 01:48:01;;;;;;;6.27;5.40;;;6.30;97.00;;;;;;5079632;28;20453;-78
2022/04/12 01:50:29;;;;;;;7.00;5.33;;;6.30;97.00;;;;;;5079996;28;20463;-78
2022/04/12 01:52:57;;;;;;;6.80;4.70;;;6.30;97.00;;;;;;5080287;28;20456;-79
2022/04/12 01:55:25;;;;;;;5.70;5.20;;;6.20;97.00;;;;;;5081737;28;20437;-79
2022/04/12 01:57:53;;;;;;;6.27;5.50;;;6.20;97.00;;;;;;5084644;28;20555;-79
2022/04/12 02:00:23;;;;;;;5.90;5.30;;;6.20;97.10;;;;;;5086385;28;20618;-78
2022/04/12 02:02:51;;;;;;;6.23;5.10;;;6.20;97.10;;;;;;5087107;28;20451;-79
2022/04/12 02:05:20;;;;;;;7.60;5.40;;;6.10;97.10;;;;;;5091392;28;20545;-78
2022/04/12 02:07:48;;;;;;;7.23;4.80;;;6.20;97.10;;;;;;5084743;28;20462;-79
2022/04/12 02:10:18;;;;;;;6.10;5.00;;;6.10;97.10;;;;;;5085017;28;20520;-78
2022/04/12 02:12:46;;;;;;;6.00;5.40;;;6.10;97.10;;;;;;5085051;28;20491;-79
2022/04/12 02:15:14;;;;;;;7.17;5.10;;;6.10;97.10;;;;;;5084956;28;20441;-78
2022/04/12 02:17:44;;;;;;;5.70;5.17;;;6.10;97.20;;;;;;5084357;28;20800;-78
2022/04/12 02:20:12;;;;;;;6.03;5.27;;;6.10;97.20;;;;;;5092329;28;20453;-78
2022/04/12 02:22:40;;;;;;;10.57;5.83;;;6.10;97.20;;;;;;5094825;28;20484;-78
2022/04/12 02:25:09;;;;;;;6.97;5.40;;;6.10;97.20;;;;;;5088322;28;20434;-79
2022/04/12 02:27:38;;;;;;;6.40;5.40;;;6.00;97.20;;;;;;5082864;28;20470;-78
2022/04/12 02:30:07;;;;;;;8.00;6.57;;;6.00;97.20;;;;;;5098657;28;20463;-78
2022/04/12 02:32:36;;;;;;;7.90;6.57;;;6.00;97.30;;;;;;5102765;28;20453;-78
2022/04/12 02:35:06;;;;;;;6.80;6.10;;;6.00;97.30;;;;;;5104856;28;20798;-79
2022/04/12 02:37:34;;;;;;;8.50;6.87;;;6.00;97.30;;;;;;5104488;28;20542;-79
2022/04/12 02:40:04;;;;;;;7.17;6.47;;;6.00;97.40;;;;;;5095138;28;20484;-78
2022/04/12 02:42:32;;;;;;;8.17;7.37;;;6.00;97.40;;;;;;5073962;28;20428;-78
2022/04/12 02:45:00;;;;;;;7.43;6.73;;;6.00;97.40;;;;;;5079884;28;20450;-79
2022/04/12 02:47:28;;;;;;;7.37;6.33;;;6.00;97.40;;;;;;5085524;28;20467;-79
2022/04/12 02:49:57;;;;;;;7.57;6.70;;;6.00;97.50;;;;;;5084240;28;20451;-78
2022/04/12 02:52:27;;;;;;;7.60;6.60;;;6.00;97.50;;;;;;5084110;28;20438;-78
2022/04/12 02:54:55;;;;;;;7.97;5.80;;;6.00;97.50;;;;;;5084912;28;20465;-78
2022/04/12 02:57:23;;;;;;;7.30;6.20;;;5.90;97.50;;;;;;5084396;28;20572;-78
2022/04/12 02:59:51;;;;;;;8.00;6.37;;;5.90;97.50;;;;;;5084834;28;20487;-78
2022/04/12 03:02:19;;;;;;;6.53;5.93;;;5.90;97.60;;;;;;5100683;28;20463;-78
2022/04/12 03:04:48;;;;;;;6.50;5.90;;;5.90;97.60;;;;;;5104573;28;20471;-79
2022/04/12 03:07:16;;;;;;;6.10;5.50;;;5.90;97.60;;;;;;5103135;28;20537;-79
2022/04/12 03:09:45;;;;;;;6.97;6.37;;;5.90;97.60;;;;;;5103227;28;20446;-78
2022/04/12 03:12:13;;;;;;;7.30;6.47;;;5.90;97.70;;;;;;5103463;28;20444;-79
2022/04/12 03:14:42;;;;;;;6.93;6.23;;;6.00;97.70;;;;;;5104056;28;20437;-79
2022/04/12 03:17:15;;;;;;;6.23;5.63;;;5.90;97.70;;;;;;5105402;28;20480;-78
2022/04/12 03:19:44;;;;;;;6.10;5.50;;;5.90;97.70;;;;;;5097687;28;20466;-78
2022/04/12 03:22:12;;;;;;;7.53;5.93;;;5.90;97.70;;;;;;5081665;28;20546;-78
2022/04/12 03:24:40;;;;;;;6.73;6.13;;;5.90;97.80;;;;;;5082086;28;20442;-79
2022/04/12 03:27:09;;;;;;;6.87;6.07;;;5.90;97.80;;;;;;5079973;28;20493;-78
2022/04/12 03:29:38;;;;;;;8.67;5.93;;;5.90;97.80;;;;;;5080747;28;20459;-78
2022/04/12 03:32:07;;;;;;;7.53;5.70;;;5.90;97.80;;;;;;5080301;28;20540;-78
2022/04/12 03:34:36;;;;;;;6.60;6.00;;;5.90;97.90;;;;;;5079053;28;20447;-78
2022/04/12 03:37:04;;;;;;;6.90;6.23;;;5.90;97.90;;;;;;5080457;28;20518;-78
2022/04/12 03:39:33;;;;;;;7.87;7.10;;;5.90;97.90;;;;;;5093809;28;20579;-78
2022/04/12 03:42:01;;;;;;;7.67;6.80;;;5.90;97.90;;;;;;5096724;28;20439;-78
2022/04/12 03:44:30;;;;;;;8.93;6.87;;;5.90;97.90;;;;;;5092109;28;20460;-78
2022/04/12 03:46:59;;;;;;;7.90;7.10;;;5.90;97.90;;;;;;5079601;28;20459;-78
2022/04/12 03:49:27;;;;;;;10.27;7.53;;;5.90;98.00;;;;;;5081975;28;20510;-78
2022/04/12 03:51:55;;;;;;;9.27;8.27;;;5.90;98.00;;;;;;5080805;28;20446;-78
2022/04/12 03:54:25;;;;;;;11.67;7.83;;;5.90;98.00;;;;;;5081498;28;20802;-79
2022/04/12 03:56:53;;;;;;;9.40;8.50;;;5.90;98.00;;;;;;5080801;28;20541;-78
2022/04/12 03:59:21;;;;;;;15.67;9.60;;;5.90;98.00;;;;;;5080189;28;21029;-78
2022/04/12 04:01:51;;;;;;;10.83;8.67;;;5.90;98.00;;;;;;5080507;28;20448;-79
2022/04/12 04:04:19;;;;;;;13.20;10.17;;;5.90;98.00;;;;;;5080018;28;20994;-78
2022/04/12 04:06:48;;;;;;;11.63;10.43;;;6.00;98.00;;;;;;5079229;28;20544;-78
2022/04/12 04:09:16;;;;;;;14.80;10.30;;;5.90;98.00;;;;;;5079421;28;20517;-78
2022/04/12 04:11:45;;;;;;;11.67;10.27;;;5.90;98.00;;;;;;5080514;28;20520;-78
2022/04/12 04:14:15;;;;;;;12.67;9.57;;;6.00;98.10;;;;;;5079726;28;20520;-78
2022/04/12 04:16:43;;;;;;;10.83;9.83;;;6.00;98.10;;;;;;5078888;28;20922;-78
2022/04/12 04:19:13;;;;;;;10.40;9.33;;;5.90;98.00;;;;;;5080328;28;20450;-78
2022/04/12 04:21:41;;;;;;;9.93;8.87;;;5.90;98.10;;;;;;5081360;28;20508;-78
2022/04/12 04:24:09;;;;;;;9.53;8.53;;;6.00;98.10;;;;;;5078108;28;20447;-78
2022/04/12 04:26:38;;;;;;;9.23;8.43;;;5.90;98.10;;;;;;5079744;28;20465;-78
2022/04/12 04:29:07;;;;;;;9.77;8.77;;;5.90;98.10;;;;;;5078582;28;20896;-78
2022/04/12 04:31:35;;;;;;;9.70;7.40;;;5.90;98.10;;;;;;5080314;28;20474;-78
2022/04/12 04:34:03;;;;;;;9.27;8.37;;;5.90;98.10;;;;;;5079782;28;20518;-78
2022/04/12 04:36:33;;;;;;;8.67;7.83;;;5.90;98.10;;;;;;5079458;28;20556;-78
2022/04/12 04:39:01;;;;;;;9.93;8.90;;;5.90;98.10;;;;;;5078813;28;21001;-79
2022/04/12 04:41:30;;;;;;;9.30;8.30;;;5.90;98.20;;;;;;5079343;28;20449;-78
2022/04/12 04:43:58;;;;;;;10.40;8.90;;;5.90;98.20;;;;;;5079542;28;20450;-78
2022/04/12 04:46:26;;;;;;;8.37;7.57;;;5.90;98.20;;;;;;5079299;28;20473;-78
2022/04/12 04:48:54;;;;;;;9.27;8.37;;;5.90;98.20;;;;;;5079435;28;20485;-78
2022/04/12 04:51:23;;;;;;;9.53;8.60;;;5.90;98.20;;;;;;5079264;28;20445;-78
2022/04/12 04:53:58;;;;;;;9.07;8.27;;;5.90;98.20;;;;;;5080660;28;20439;-78
2022/04/12 04:56:26;;;;;;;9.17;8.27;;;5.90;98.50;;;;;;5081374;28;20536;-79
2022/04/12 04:58:55;;;;;;;10.47;8.87;;;6.00;98.20;;;;;;5081760;28;20489;-78
2022/04/12 05:01:23;;;;;;;8.87;8.07;;;6.00;98.30;;;;;;5079330;28;20438;-78
2022/04/12 05:03:51;;;;;;;7.80;6.93;;;6.00;98.30;;;;;;5078490;28;20456;-78
2022/04/12 05:06:20;;;;;;;8.53;7.70;;;5.90;98.20;;;;;;5079305;28;20455;-78
2022/04/12 05:08:49;;;;;;;9.70;7.43;;;6.00;98.30;;;;;;5078116;28;20487;-78
2022/04/12 05:11:18;;;;;;;8.93;8.13;;;6.00;98.30;;;;;;5079716;28;20986;-78
2022/04/12 05:13:46;;;;;;;10.37;8.33;;;6.00;98.30;;;;;;5080143;28;20473;-78
2022/04/12 05:16:14;;;;;;;9.03;8.13;;;6.00;98.30;;;;;;5078922;28;20468;-78
2022/04/12 05:18:43;;;;;;;9.03;8.13;;;6.00;98.30;;;;;;5077604;28;20902;-78
2022/04/12 05:21:11;;;;;;;9.13;7.83;;;6.00;98.30;;;;;;5078138;28;20472;-78
2022/04/12 05:23:40;;;;;;;10.43;9.00;;;6.10;98.40;;;;;;5080330;28;20804;-78
2022/04/12 05:26:08;;;;;;;9.30;8.27;;;6.10;98.40;;;;;;5074415;28;20472;-78
2022/04/12 05:28:38;;;;;;;9.20;8.40;;;6.10;98.40;;;;;;5072759;28;20448;-78
2022/04/12 05:31:06;;;;;;;9.20;8.10;;;6.10;98.40;;;;;;5075082;28;20494;-78
2022/04/12 05:33:35;;;;;;;8.67;7.83;;;6.10;98.40;;;;;;5076914;28;20795;-77
2022/04/12 05:36:03;;;;;;;10.20;9.07;;;6.10;98.40;;;;;;5080192;28;20494;-78
2022/04/12 05:38:32;;;;;;;9.47;8.67;;;6.20;98.40;;;;;;5083697;28;20516;-79
2022/04/12 05:41:00;;;;;;;9.20;8.30;;;6.20;98.40;;;;;;5086150;28;20450;-79
2022/04/12 05:43:30;;;;;;;8.60;7.70;;;6.20;98.40;;;;;;5085053;28;20849;-79
2022/04/12 05:46:00;;;;;;;9.67;8.67;;;6.30;98.40;;;;;;5083595;28;20672;-79
2022/04/12 05:48:28;;;;;;;13.53;9.57;;;6.30;98.40;;;;;;5085697;28;20437;-78
2022/04/12 05:50:56;;;;;;;8.80;7.93;;;6.30;98.40;;;;;;5083568;28;20442;-78
2022/04/12 05:53:25;;;;;;;8.50;7.80;;;6.40;98.50;;;;;;5083242;28;20482;-79
2022/04/12 05:55:53;;;;;;;9.43;8.50;;;6.40;98.40;;;;;;5081899;28;20548;-79
2022/04/12 05:58:22;;;;;;;8.83;8.00;;;6.40;98.40;;;;;;5083005;28;20555;-78
2022/04/12 06:00:50;;;;;;;9.00;7.60;;;6.50;98.50;;;;;;5082224;28;20442;-78
2022/04/12 06:03:19;;;;;;;9.07;7.90;;;6.50;98.50;;;;;;5079317;28;20456;-79
2022/04/12 06:05:49;;;;;;;8.33;7.53;;;6.60;98.50;;;;;;5081007;28;20526;-78
2022/04/12 06:08:17;;;;;;;8.53;7.60;;;6.60;98.50;;;;;;5081074;28;20489;-78
2022/04/12 06:10:45;;;;;;;8.80;7.90;;;6.60;98.50;;;;;;5080121;28;20939;-78
2022/04/12 06:13:14;;;;;;;11.20;8.40;;;6.70;98.50;;;;;;5078622;28;20456;-78
2022/04/12 06:15:42;;;;;;;8.83;8.03;;;6.80;98.50;;;;;;5080373;28;20467;-78
2022/04/12 06:18:10;;;;;;;8.23;7.50;;;6.80;98.50;;;;;;5078748;28;20472;-78
2022/04/12 06:20:40;;;;;;;9.40;8.53;;;6.80;98.50;;;;;;5078840;28;20479;-78
2022/04/12 06:23:09;;;;;;;8.80;8.00;;;6.90;98.50;;;;;;5078766;28;20451;-78
2022/04/12 06:25:37;;;;;;;8.10;7.30;;;6.90;98.50;;;;;;5077408;28;20491;-78
2022/04/12 06:28:07;;;;;;;9.47;8.50;;;6.90;98.40;;;;;;5079304;28;20461;-78
2022/04/12 06:30:35;;;;;;;9.27;8.47;;;7.00;98.40;;;;;;5079663;28;20450;-78
2022/04/12 06:33:03;;;;;;;8.60;7.30;;;7.00;98.40;;;;;;5077049;28;20965;-78
2022/04/12 06:35:31;;;;;;;8.50;7.80;;;7.10;98.50;;;;;;5078662;28;20448;-78
2022/04/12 06:38:03;;;;;;;9.47;8.57;;;7.20;98.50;;;;;;5078850;28;20443;-78
2022/04/12 06:40:32;;;;;;;9.87;8.27;;;7.30;98.50;;;;;;5079906;28;20444;-78
2022/04/12 06:43:01;;;;;;;10.07;8.97;;;7.30;98.50;;;;;;5078348;28;20457;-78
2022/04/12 06:45:29;;;;;;;10.33;9.23;;;7.40;98.50;;;;;;5078757;28;20953;-78
2022/04/12 06:47:59;;;;;;;15.50;10.73;;;7.50;98.50;;;;;;5079462;28;20545;-78
2022/04/12 06:50:28;;;;;;;11.50;10.30;;;7.60;98.60;;;;;;5078896;28;20455;-78
2022/04/12 06:52:58;;;;;;;8.90;8.10;;;7.80;98.60;;;;;;5081487;28;20531;-78
2022/04/12 06:55:28;;;;;;;8.37;7.57;;;8.00;98.70;;;;;;5079724;28;20449;-78
2022/04/12 06:57:57;;;;;;;8.17;7.37;;;8.20;98.70;;;;;;5080417;28;20518;-78
2022/04/12 07:00:26;;;;;;;8.57;7.73;;;8.40;98.70;;;;;;5081839;28;20463;-79
2022/04/12 07:02:55;;;;;;;8.83;8.03;;;8.70;98.80;;;;;;5082843;28;21005;-79
2022/04/12 07:05:23;;;;;;;8.50;7.70;;;8.90;98.80;;;;;;5081192;28;20469;-79
2022/04/12 07:07:53;;;;;;;8.63;7.70;;;9.20;98.80;;;;;;5080728;28;20445;-79
2022/04/12 07:10:21;;;;;;;8.03;7.33;;;9.50;98.90;;;;;;5080838;28;20845;-78
2022/04/12 07:12:53;;;;;;;7.50;6.80;;;9.80;98.90;;;;;;5081562;28;20477;-79
2022/04/12 07:15:22;;;;;;;8.20;7.40;;;10.00;98.40;;;;;;5080378;28;20536;-79
2022/04/12 07:17:50;;;;;;;7.73;7.00;;;10.20;98.40;;;;;;5080697;28;20850;-78
2022/04/12 07:20:20;;;;;;;10.73;9.80;;;10.30;98.30;;;;;;5081233;28;20594;-78
2022/04/12 07:22:48;;;;;;;9.10;8.30;;;10.60;98.30;;;;;;5080649;28;20456;-79
2022/04/12 07:25:17;;;;;;;9.10;7.30;;;10.70;98.10;;;;;;5078139;28;20540;-78
2022/04/12 07:27:45;;;;;;;7.87;7.07;;;10.70;98.00;;;;;;5078971;28;20473;-78
2022/04/12 07:30:16;;;;;;;7.83;7.07;;;10.90;98.00;;;;;;5081486;28;20425;-78
2022/04/12 07:33:04;;;;;;;7.80;7.10;;;11.00;97.90;;;;;;5077502;28;20801;-76
2022/04/12 07:35:32;;;;;;;7.70;6.93;;;11.10;97.90;;;;;;5076045;28;21018;-78
2022/04/12 07:38:00;;;;;;;7.97;6.97;;;11.30;98.00;;;;;;5079664;28;20849;-76
2022/04/12 07:40:28;;;;;;;7.60;6.90;;;11.50;98.00;;;;;;5074757;28;20472;-76
2022/04/12 07:42:56;;;;;;;7.83;6.70;;;11.70;97.90;;;;;;5078782;28;20518;-78
2022/04/12 07:45:26;;;;;;;7.13;6.43;;;11.80;97.70;;;;;;5075934;28;20453;-76
2022/04/12 07:47:54;;;;;;;7.43;6.67;;;11.90;97.60;;;;;;5078209;28;20539;-79
2022/04/12 07:50:27;;;;;;;8.57;7.77;;;12.00;97.50;;;;;;5074382;28;20483;-79
2022/04/12 07:52:55;;;;;;;8.83;8.03;;;12.20;97.80;;;;;;5078205;28;20438;-76
2022/04/12 07:55:23;;;;;;;7.53;6.83;;;12.40;97.60;;;;;;5074156;28;20490;-77
2022/04/12 07:57:51;;;;;;;10.77;9.30;;;12.60;97.70;;;;;;5074362;28;20457;-77
2022/04/12 08:00:19;;;;;;;7.47;6.87;;;12.80;97.60;;;;;;5075427;28;20473;-77
2022/04/12 08:02:50;;;;;;;7.37;6.67;;;13.00;97.60;;;;;;5075153;28;20433;-77
2022/04/12 08:05:18;;;;;;;7.77;7.00;;;13.20;97.50;;;;;;5073519;28;20503;-77
2022/04/12 08:07:48;;;;;;;8.00;7.17;;;13.30;97.50;;;;;;5074672;28;20471;-76
2022/04/12 08:10:17;;;;;;;7.23;6.63;;;13.40;97.40;;;;;;5073430;28;20449;-77
2022/04/12 08:12:46;;;;;;;8.87;7.23;;;13.50;97.20;;;;;;5073562;28;20477;-77
2022/04/12 08:15:16;;;;;;;8.33;7.50;;;13.50;97.10;;;;;;5073356;28;20540;-77
2022/04/12 08:17:44;;;;;;;7.40;6.77;;;13.50;97.00;;;;;;5073810;28;20871;-77
2022/04/12 08:20:14;;;;;;;7.73;7.10;;;13.50;96.90;;;;;;5073554;28;20519;-77
2022/04/12 08:22:44;;;;;;;6.90;6.30;;;13.60;96.80;;;;;;5075181;28;20450;-77
2022/04/12 08:25:17;;;;;;;7.33;6.70;;;13.60;96.70;;;;;;5075174;28;20436;-77
2022/04/12 08:27:45;;;;;;;7.87;7.17;;;13.60;96.60;;;;;;5074003;28;20475;-77
2022/04/12 08:30:15;;;;;;;7.60;6.90;;;13.60;96.40;;;;;;5073822;28;20942;-76
2022/04/12 08:32:43;;;;;;;7.93;6.63;;;13.50;96.40;;;;;;5073537;28;20456;-77
2022/04/12 08:35:11;;;;;;;7.80;7.00;;;13.40;96.30;;;;;;5073497;28;20467;-76
2022/04/12 08:37:41;;;;;;;8.20;7.40;;;13.40;96.30;;;;;;5073625;28;20561;-77
2022/04/12 08:40:10;;;;;;;8.43;7.63;;;13.40;96.30;;;;;;5073627;28;20564;-76
2022/04/12 08:42:38;;;;;;;11.77;10.57;;;13.40;96.30;;;;;;5073708;28;20488;-77
2022/04/12 08:45:07;;;;;;;7.30;6.60;;;13.50;96.50;;;;;;5074463;28;20502;-77
2022/04/12 08:47:36;;;;;;;8.17;7.37;;;13.60;96.30;;;;;;5074754;28;20583;-77
2022/04/12 08:50:07;;;;;;;8.40;7.57;;;13.70;96.30;;;;;;5073359;28;20494;-77
2022/04/12 08:52:37;;;;;;;6.97;6.27;;;13.80;96.30;;;;;;5074271;28;20434;-77
2022/04/12 08:55:08;;;;;;;7.47;6.77;;;13.90;96.30;;;;;;5072974;28;21025;-76
2022/04/12 08:57:36;;;;;;;9.40;7.50;;;14.00;96.30;;;;;;5072370;28;20508;-77
2022/04/12 09:00:07;;;;;;;9.03;8.20;;;14.10;96.20;;;;;;5073352;28;20550;-76
2022/04/12 09:02:35;;;;;;;9.50;6.87;;;14.10;96.00;;;;;;5072073;28;20487;-76
2022/04/12 09:05:05;;;;;;;7.97;7.10;;;14.20;96.00;;;;;;5071701;28;20449;-76
2022/04/12 09:07:33;;;;;;;7.10;6.50;;;14.20;95.80;;;;;;5073287;28;20553;-76
2022/04/12 09:10:08;;;;;;;6.90;6.33;;;14.20;95.80;;;;;;5072046;28;20449;-76
2022/04/12 09:12:36;;;;;;;8.73;7.83;;;14.30;95.70;;;;;;5072032;28;20520;-76
2022/04/12 09:15:10;;;;;;;7.47;6.77;;;14.40;95.80;;;;;;5072047;28;20500;-76
2022/04/12 09:17:41;;;;;;;7.23;6.50;;;14.50;95.80;;;;;;5071983;28;20473;-76
2022/04/12 09:20:13;;;;;;;7.87;7.07;;;14.60;95.70;;;;;;5071993;28;21045;-77
2022/04/12 09:22:41;;;;;;;7.10;6.40;;;14.80;95.70;;;;;;5072137;28;20495;-77
2022/04/12 09:25:13;;;;;;;8.10;7.20;;;14.90;95.80;;;;;;5071896;28;20435;-76
2022/04/12 09:27:44;;;;;;;8.63;7.83;;;15.00;95.80;;;;;;5071899;28;20538;-77
2022/04/12 09:30:15;;;;;;;8.67;7.53;;;15.20;95.70;;;;;;5072176;28;20486;-76
2022/04/12 09:32:46;;;;;;;9.47;7.60;;;15.30;95.60;;;;;;5071892;28;20445;-78
2022/04/12 09:35:15;;;;;;;7.93;7.27;;;15.40;95.50;;;;;;5073680;28;20414;-77
2022/04/12 09:37:44;;;;;;;8.70;7.80;;;15.40;95.30;;;;;;5071952;28;20442;-76
2022/04/12 09:40:15;;;;;;;8.47;7.77;;;15.50;95.40;;;;;;5071915;28;20468;-76
2022/04/12 09:42:47;;;;;;;8.60;7.70;;;15.60;95.30;;;;;;5071905;28;20447;-77
2022/04/12 09:45:17;;;;;;;8.00;7.20;;;15.60;95.20;;;;;;5071926;28;20504;-76
2022/04/12 09:47:46;;;;;;;7.80;7.00;;;15.70;95.30;;;;;;5072956;28;20444;-77
2022/04/12 09:50:35;;;;;;;9.10;7.40;;;15.80;95.20;;;;;;5074287;28;20404;-76
2022/04/12 09:53:09;;;;;;;8.63;7.70;;;15.90;95.10;;;;;;5073311;28;20448;-76
2022/04/12 09:55:42;;;;;;;10.17;9.17;;;15.90;94.80;;;;;;5072633;28;20423;-76
2022/04/12 09:58:13;;;;;;;9.93;8.90;;;16.00;94.70;;;;;;5074925;28;20417;-76
2022/04/12 10:00:42;;;;;;;8.60;7.73;;;16.00;94.60;;;;;;5075200;28;20826;-77
2022/04/12 10:03:13;;;;;;;9.67;8.77;;;16.10;94.60;;;;;;5073360;28;20427;-76
2022/04/12 10:05:42;;;;;;;10.43;8.30;;;16.10;94.50;;;;;;5075093;28;20415;-76
2022/04/12 10:08:12;;;;;;;11.13;10.00;;;16.10;94.50;;;;;;5072289;28;20439;-78
2022/04/12 10:10:44;;;;;;;7.90;7.10;;;16.20;94.40;;;;;;5073715;28;20946;-77
2022/04/12 10:13:14;;;;;;;10.03;7.93;;;16.30;94.30;;;;;;5072529;28;20431;-76
2022/04/12 10:15:43;;;;;;;8.50;7.67;;;16.30;94.10;;;;;;5072340;28;20444;-76
2022/04/12 10:18:15;;;;;;;9.83;7.70;;;16.40;94.00;;;;;;5075692;28;20902;-76
2022/04/12 10:20:44;;;;;;;7.83;7.13;;;16.50;94.00;;;;;;5076106;28;20806;-76
2022/04/12 10:23:17;;;;;;;8.33;7.53;;;16.50;93.90;;;;;;5077621;28;20528;-78
2022/04/12 10:25:49;;;;;;;8.20;6.70;;;16.50;93.90;;;;;;5077460;28;20571;-76
2022/04/12 10:28:18;;;;;;;8.10;7.27;;;16.60;93.70;;;;;;5077192;28;20869;-76
2022/04/12 10:30:47;;;;;;;8.20;6.77;;;16.70;93.70;;;;;;5076634;28;20439;-77
2022/04/12 10:33:24;;;;;;;8.00;7.27;;;16.70;93.50;;;;;;5075505;28;21034;-76
2022/04/12 10:36:02;;;;;;;8.93;8.03;;;16.80;93.40;;;;;;5076841;28;20435;-76
2022/04/12 10:38:42;;;;;;;8.33;7.50;;;16.80;93.20;;;;;;5076921;28;20432;-76
2022/04/12 10:41:16;;;;;;;10.73;8.07;;;16.90;93.40;;;;;;5077633;28;20491;-77
2022/04/12 10:43:44;;;;;;;8.93;8.10;;;16.90;93.20;;;;;;5079632;28;20433;-77
2022/04/12 10:46:19;;;;;;;8.70;7.83;;;17.00;93.20;;;;;;5075773;28;20961;-76
2022/04/12 10:48:56;;;;;;;8.40;7.17;;;17.00;93.10;;;;;;5074984;28;20419;-77
2022/04/12 10:51:39;;;;;;;7.80;7.00;;;17.10;93.10;;;;;;5076411;28;20459;-76
2022/04/12 10:54:27;;;;;;;8.60;7.80;;;17.10;93.00;;;;;;5074535;28;20435;-76
2022/04/12 10:57:27;;;;;;;6.77;6.17;;;17.10;92.90;;;;;;5075762;28;20476;-76
2022/04/12 11:00:05;;;;;;;10.10;9.03;;;17.20;92.90;;;;;;5075579;28;20437;-76
2022/04/12 11:02:38;;;;;;;9.10;8.23;;;17.20;92.90;;;;;;5075502;28;20952;-76
2022/04/12 11:05:07;;;;;;;9.30;8.43;;;17.20;92.70;;;;;;5075813;28;20433;-76
2022/04/12 11:07:37;;;;;;;7.73;6.93;;;17.20;92.70;;;;;;5074101;28;20440;-76
2022/04/12 11:10:23;;;;;;;8.07;7.37;;;17.30;92.60;;;;;;5074143;28;20449;-76
2022/04/12 11:13:06;;;;;;;8.10;7.27;;;17.30;92.50;;;;;;5075714;28;20422;-76
2022/04/12 11:15:35;;;;;;;7.47;6.73;;;17.30;92.70;;;;;;5074151;28;20816;-76
2022/04/12 11:18:12;;;;;;;8.63;7.83;;;17.30;92.30;;;;;;5075180;28;20429;-76
2022/04/12 11:20:42;;;;;;;8.83;7.90;;;17.30;92.20;;;;;;5076163;28;20495;-76
2022/04/12 11:23:12;;;;;;;8.30;7.50;;;17.30;92.20;;;;;;5076334;28;20429;-76
2022/04/12 11:25:48;;;;;;;8.80;7.87;;;17.40;92.10;;;;;;5075740;28;20827;-76
2022/04/12 11:28:22;;;;;;;7.77;7.07;;;17.40;92.10;;;;;;5073870;28;20433;-76
2022/04/12 11:30:55;;;;;;;8.00;7.23;;;17.40;92.20;;;;;;5073929;28;20443;-76
2022/04/12 11:33:28;;;;;;;7.83;7.13;;;17.40;92.10;;;;;;5073814;28;20424;-76
2022/04/12 11:35:57;;;;;;;8.80;8.00;;;17.50;92.10;;;;;;5074190;28;20492;-76
2022/04/12 11:38:26;;;;;;;8.10;7.07;;;17.50;92.10;;;;;;5073607;28;20445;-76
2022/04/12 11:41:01;;;;;;;8.70;7.90;;;17.50;92.00;;;;;;5073449;28;20477;-76
2022/04/12 11:43:31;;;;;;;10.10;9.00;;;17.60;92.00;;;;;;5073537;28;20436;-76
2022/04/12 11:46:01;;;;;;;9.00;8.13;;;17.70;92.10;;;;;;5073317;28;20457;-76
2022/04/12 11:48:30;;;;;;;9.20;7.60;;;17.70;91.90;;;;;;5073376;28;20449;-76
2022/04/12 11:51:03;;;;;;;8.80;8.00;;;17.70;92.00;;;;;;5073256;28;20540;-76
2022/04/12 11:53:31;;;;;;;9.77;8.77;;;17.80;92.00;;;;;;5073304;28;20524;-76
2022/04/12 11:56:04;;;;;;;8.80;7.90;;;17.80;91.90;;;;;;5072954;28;20554;-77
2022/04/12 11:58:35;;;;;;;9.13;8.23;;;17.80;91.70;;;;;;5073237;28;20429;-76
2022/04/12 12:01:03;;;;;;;10.13;9.03;;;17.90;91.70;;;;;;5073127;28;20958;-76
2022/04/12 12:03:31;;;;;;;9.23;8.30;;;17.90;91.60;;;;;;5073072;28;20443;-76
2022/04/12 12:06:01;;;;;;;9.73;8.73;;;18.00;91.50;;;;;;5074406;28;20493;-76
2022/04/12 12:08:30;;;;;;;9.77;8.77;;;18.00;91.70;;;;;;5072955;28;20453;-76
2022/04/12 12:10:59;;;;;;;9.30;8.40;;;18.00;91.50;;;;;;5072934;28;20420;-76
2022/04/12 12:13:27;;;;;;;10.27;8.37;;;18.10;91.60;;;;;;5072811;28;20441;-76
2022/04/12 12:15:57;;;;;;;9.93;8.90;;;18.10;91.50;;;;;;5072724;28;20473;-76
2022/04/12 12:18:25;;;;;;;9.27;8.33;;;18.10;91.40;;;;;;5072749;28;20444;-76
2022/04/12 12:20:53;;;;;;;8.97;8.10;;;18.20;91.40;;;;;;5072640;28;20996;-76
2022/04/12 12:23:21;;;;;;;9.40;8.20;;;18.20;91.30;;;;;;5073933;28;20498;-76
2022/04/12 12:25:59;;;;;;;10.00;9.00;;;18.20;91.20;;;;;;5072569;28;20477;-76
2022/04/12 12:28:28;;;;;;;9.10;8.20;;;18.20;91.10;;;;;;5072562;28;20444;-76
2022/04/12 12:31:02;;;;;;;10.47;9.07;;;18.30;91.20;;;;;;5072439;28;20449;-76
2022/04/12 12:33:41;;;;;;;8.77;7.77;;;18.30;91.20;;;;;;5072486;28;20445;-76
2022/04/12 12:36:19;;;;;;;9.93;8.33;;;18.40;91.20;;;;;;5073976;28;20456;-76
2022/04/12 12:38:48;;;;;;;8.83;8.00;;;18.40;91.30;;;;;;5073615;28;20524;-76
2022/04/12 12:41:26;;;;;;;10.60;9.53;;;18.50;91.30;;;;;;5071548;28;20542;-76
2022/04/12 12:43:56;;;;;;;9.17;8.27;;;18.50;91.20;;;;;;5072368;28;20457;-76
2022/04/12 12:46:32;;;;;;;9.73;8.83;;;18.60;91.20;;;;;;5072208;28;20491;-76
2022/04/12 12:49:11;;;;;;;10.43;9.40;;;18.60;91.10;;;;;;5072309;28;20473;-76
2022/04/12 12:51:40;;;;;;;11.47;10.30;;;18.70;91.00;;;;;;5072282;28;20524;-76
2022/04/12 12:54:13;;;;;;;14.63;9.30;;;18.70;90.90;;;;;;5072232;28;20449;-76
2022/04/12 12:56:41;;;;;;;10.07;9.07;;;18.70;90.80;;;;;;5071971;28;20828;-76
2022/04/12 12:59:20;;;;;;;9.90;8.93;;;18.80;90.80;;;;;;5072483;28;20810;-76
2022/04/12 13:01:53;;;;;;;11.07;9.83;;;18.80;90.60;;;;;;5072121;28;20499;-76
2022/04/12 13:04:23;;;;;;;10.77;9.10;;;18.80;90.50;;;;;;5073671;28;20461;-76
2022/04/12 13:07:05;;;;;;;9.40;8.50;;;18.80;90.50;;;;;;5073381;28;20465;-77